SKBQ

Ernesto Cortissoz International Airport

Barranquilla, Colombia
METAR SKBQ 150600Z 28003KT CAVOK 26/22 A2986
Observed Flight Rules
Dec-15 @ 06:00 UTC (an hour ago) Visual Flight Rules
Wind Visibility Clouds
280° at 3 knots 10,000+ meters
  • Clear skies
Temperatures Readings
Current 26°C / 79°F
Dewpoint 22°C / 72°F
Humidity 79%
Altimeter 29.86" Hg
Pressure 1011 hPa
Elevation 10
METAR SKBQ 150600Z 28003KT CAVOK 26/22 A2986
Observed Flight Rules
Dec-15 @ 06:00 UTC
(an hour ago)
VFR
Wind Visibility
280° at 3 knots 10,000+ meters
Clouds
  • Clear skies
Temperature Dewpoint
26°C / 79°F 22°C / 72°F
Humidity Altimeter Pressure
79% 29.86" Hg 1011 hPa